Time;durP1;ratioP1;P1;durP2;ratioP2;P2;SDS_P1;SDS_P2;PMS_P1;PMS_P2;Temp;Humidity;BMP_temperature;BMP_pressure;BME280_temperature;BME280_humidity;BME280_pressure;Samples;Min_cycle;Max_cycle;Signal;HPM_P1;HPM_P2
2021/07/15 09:11:19;;;;;;;6.95;4.90;;;20.60;99.90;;;;;;11880601;28;20431;-60
2021/07/15 09:25:01;;;;;;;8.35;6.18;;;21.20;99.90;;;;;;12036787;27;20447;-59
2021/07/15 09:30:48;;;;;;;8.45;5.15;;;21.20;99.90;;;;;;11973199;27;20060;-59
2021/07/15 09:36:41;;;;;;;11.45;4.68;;;21.80;99.90;;;;;;12010097;28;20068;-60
2021/07/15 09:42:30;;;;;;;8.13;5.40;;;21.90;99.90;;;;;;12012679;28;20037;-59
2021/07/15 09:48:19;;;;;;;5.00;4.50;;;22.00;99.90;;;;;;12019079;28;20053;-57
2021/07/15 09:54:06;;;;;;;8.35;4.75;;;22.20;99.90;;;;;;11991102;28;20469;-59
2021/07/15 09:59:57;;;;;;;7.13;4.90;;;22.60;99.90;;;;;;12013621;28;20140;-60
2021/07/15 10:05:51;;;;;;;5.63;4.80;;;22.50;99.90;;;;;;12011335;28;20088;-60
2021/07/15 10:11:38;;;;;;;4.85;4.38;;;22.40;99.90;;;;;;11998523;28;20057;-61
2021/07/15 10:17:40;;;;;;;10.82;4.40;;;22.40;99.90;;;;;;11998799;28;20048;-60
2021/07/15 10:23:38;;;;;;;7.85;4.85;;;22.70;99.90;;;;;;12004164;28;20044;-60
2021/07/15 10:29:25;;;;;;;5.00;4.50;;;22.70;99.90;;;;;;12002473;28;20057;-60
2021/07/15 10:35:16;;;;;;;5.78;4.85;;;22.80;99.90;;;;;;11974521;28;20053;-58
2021/07/15 10:41:03;;;;;;;7.30;4.45;;;23.00;99.90;;;;;;11959494;28;20056;-60
2021/07/15 10:46:51;;;;;;;7.35;4.32;;;23.00;99.90;;;;;;12007957;28;20424;-60
2021/07/15 10:52:40;;;;;;;5.25;4.38;;;23.30;99.90;;;;;;12017840;28;20512;-59
2021/07/15 10:58:43;;;;;;;6.03;4.00;;;23.20;99.90;;;;;;12018904;28;20048;-60
2021/07/15 11:04:38;;;;;;;11.30;4.32;;;23.40;99.90;;;;;;12015024;28;20037;-60
2021/07/15 11:10:34;;;;;;;4.20;3.72;;;23.60;99.90;;;;;;11944296;28;20110;-59
2021/07/15 11:16:49;;;;;;;5.97;4.45;;;24.10;99.90;;;;;;11927790;28;20053;-60
2021/07/15 11:22:50;;;;;;;8.60;4.20;;;24.20;99.90;;;;;;11958598;28;20041;-59
2021/07/15 11:28:50;;;;;;;7.57;4.20;;;24.20;99.90;;;;;;11977676;28;20033;-60
2021/07/15 11:34:50;;;;;;;5.25;3.70;;;24.20;99.90;;;;;;11972984;28;20080;-60
2021/07/15 11:40:45;;;;;;;5.15;4.00;;;24.50;99.90;;;;;;11978352;28;20045;-59
2021/07/15 11:46:37;;;;;;;5.05;3.97;;;24.20;99.90;;;;;;11973592;28;20049;-59
2021/07/15 11:52:24;;;;;;;8.55;3.80;;;24.20;99.90;;;;;;11978245;28;20050;-58
2021/07/15 11:58:46;;;;;;;4.22;3.65;;;24.20;99.90;;;;;;11977665;28;20566;-60
2021/07/15 12:05:10;;;;;;;3.47;3.17;;;24.40;99.90;;;;;;11978427;28;20057;-61
2021/07/15 12:10:57;;;;;;;5.60;3.50;;;24.60;99.90;;;;;;11972784;28;20113;-59
2021/07/15 12:16:45;;;;;;;4.78;3.60;;;24.50;99.90;;;;;;11972338;28;20037;-60
2021/07/15 12:22:45;;;;;;;4.85;3.60;;;24.80;99.90;;;;;;11975033;28;20041;-59
2021/07/15 12:28:34;;;;;;;5.57;3.72;;;24.50;99.90;;;;;;11976642;28;20036;-60
2021/07/15 12:34:21;;;;;;;5.35;3.42;;;24.60;99.90;;;;;;11975805;28;20060;-60
2021/07/15 12:40:10;;;;;;;5.72;3.80;;;24.50;99.90;;;;;;11970911;28;20042;-60
2021/07/15 12:46:09;;;;;;;7.00;3.45;;;24.70;99.90;;;;;;11985098;28;20420;-61
2021/07/15 12:51:59;;;;;;;14.07;3.22;;;25.00;99.90;;;;;;12014128;28;20049;-60
2021/07/15 12:57:54;;;;;;;7.35;3.75;;;25.20;99.90;;;;;;12011655;28;20049;-60
2021/07/15 13:03:41;;;;;;;7.63;4.03;;;25.10;99.90;;;;;;11969435;28;20037;-60
2021/07/15 13:09:33;;;;;;;8.90;3.72;;;25.00;99.90;;;;;;11987047;28;20494;-60
2021/07/15 13:15:21;;;;;;;8.48;3.25;;;24.90;99.90;;;;;;11990554;28;20516;-60
2021/07/15 13:21:10;;;;;;;5.32;3.20;;;24.90;99.90;;;;;;11988909;28;20041;-60
2021/07/15 13:26:59;;;;;;;6.30;3.13;;;25.20;99.90;;;;;;12000478;28;20053;-60
2021/07/15 13:32:47;;;;;;;5.18;3.65;;;25.00;99.90;;;;;;11983786;28;20051;-60
2021/07/15 13:38:41;;;;;;;3.08;2.80;;;25.30;99.90;;;;;;11988903;28;20098;-60
2021/07/15 13:44:28;;;;;;;7.13;2.90;;;25.50;97.50;;;;;;12012733;28;20547;-60
2021/07/15 13:50:23;;;;;;;3.20;2.90;;;25.40;97.90;;;;;;12013645;28;20060;-59
2021/07/15 13:56:09;;;;;;;4.82;3.30;;;25.30;98.80;;;;;;12009364;28;20053;-59
2021/07/15 14:02:14;;;;;;;6.68;3.20;;;25.30;98.80;;;;;;12010831;28;20543;-60
2021/07/15 14:08:04;;;;;;;10.50;2.80;;;25.50;97.80;;;;;;11984347;28;20422;-63
2021/07/15 14:13:50;;;;;;;3.10;2.78;;;26.00;97.70;;;;;;12019076;28;20056;-62
2021/07/15 14:19:38;;;;;;;4.28;2.60;;;25.90;96.00;;;;;;12010640;28;20395;-62
2021/07/15 14:25:27;;;;;;;5.13;2.53;;;25.80;96.30;;;;;;12006813;28;20406;-62
2021/07/15 14:31:14;;;;;;;3.15;2.38;;;25.80;95.00;;;;;;12020772;28;20045;-62
2021/07/15 14:37:01;;;;;;;7.85;2.72;;;25.30;95.90;;;;;;12021067;28;20048;-63
2021/07/15 14:42:50;;;;;;;8.43;2.92;;;25.80;96.40;;;;;;12019384;28;20194;-62
2021/07/15 14:48:37;;;;;;;9.57;2.67;;;26.10;95.80;;;;;;12019591;28;20452;-63
2021/07/15 14:54:24;;;;;;;3.25;2.70;;;26.30;93.80;;;;;;12022328;28;20052;-63
2021/07/15 15:00:14;;;;;;;3.13;2.85;;;26.50;94.10;;;;;;12019749;28;20148;-63
2021/07/15 15:06:01;;;;;;;6.03;2.80;;;26.30;94.40;;;;;;12005001;28;20072;-63
2021/07/15 15:11:48;;;;;;;5.13;2.90;;;25.40;95.90;;;;;;11980221;28;20053;-63
2021/07/15 15:17:36;;;;;;;4.15;2.83;;;25.70;95.30;;;;;;11978560;28;20101;-63
2021/07/15 15:23:26;;;;;;;5.20;3.03;;;26.20;95.40;;;;;;12018040;28;20040;-63
2021/07/15 15:29:13;;;;;;;6.95;2.90;;;26.00;94.90;;;;;;12015926;28;20072;-63
2021/07/15 15:35:02;;;;;;;4.40;3.38;;;25.60;95.70;;;;;;12017943;28;20464;-63
2021/07/15 15:40:49;;;;;;;3.67;2.85;;;25.50;95.60;;;;;;12019064;28;20685;-63
2021/07/15 15:46:37;;;;;;;3.80;3.08;;;25.80;96.90;;;;;;12019053;28;20106;-63
2021/07/15 15:52:26;;;;;;;3.45;3.13;;;26.00;95.80;;;;;;12018170;28;20458;-63
2021/07/15 15:58:13;;;;;;;3.50;2.60;;;26.10;96.70;;;;;;12016821;28;20159;-63
2021/07/15 16:04:00;;;;;;;3.05;2.45;;;27.30;93.50;;;;;;12016196;28;20041;-63
2021/07/15 16:09:48;;;;;;;6.03;2.90;;;26.80;93.50;;;;;;11971181;28;20059;-63
2021/07/15 16:15:35;;;;;;;3.05;2.78;;;26.00;94.20;;;;;;11980889;28;20520;-65
2021/07/15 16:21:22;;;;;;;3.17;2.75;;;25.80;95.00;;;;;;11975210;28;20056;-65
2021/07/15 16:27:10;;;;;;;2.53;2.33;;;25.60;95.00;;;;;;11977789;28;20055;-63
2021/07/15 16:32:58;;;;;;;3.13;2.83;;;25.40;95.30;;;;;;11972390;28;20464;-61
2021/07/15 16:38:45;;;;;;;4.60;2.35;;;26.20;95.20;;;;;;11973081;28;21233;-60
2021/07/15 16:44:34;;;;;;;4.57;2.60;;;28.20;91.90;;;;;;12009697;28;20052;-62
2021/07/15 16:50:21;;;;;;;2.90;2.40;;;30.20;85.60;;;;;;12009800;28;20133;-62
2021/07/15 16:56:08;;;;;;;6.85;2.60;;;31.70;77.90;;;;;;12014285;28;20057;-62
2021/07/15 17:01:57;;;;;;;4.13;2.75;;;32.60;72.10;;;;;;12013129;28;20104;-63
2021/07/15 17:07:44;;;;;;;2.55;2.33;;;33.40;68.40;;;;;;11986738;28;20056;-62
2021/07/15 17:13:32;;;;;;;4.60;2.42;;;33.10;64.70;;;;;;11972189;28;20061;-62
2021/07/15 17:19:21;;;;;;;3.35;2.38;;;33.00;65.10;;;;;;12003304;28;20520;-62
2021/07/15 17:25:09;;;;;;;4.85;2.38;;;31.40;68.40;;;;;;12010815;28;20038;-62
2021/07/15 17:30:56;;;;;;;5.07;2.40;;;30.00;73.80;;;;;;12013220;28;20053;-62
2021/07/15 17:36:44;;;;;;;3.80;2.38;;;31.50;68.40;;;;;;12008591;28;20048;-62
2021/07/15 17:42:31;;;;;;;4.57;2.45;;;33.70;61.10;;;;;;12010962;28;20040;-62
2021/07/15 17:48:18;;;;;;;4.78;2.30;;;34.60;58.20;;;;;;12024772;28;20044;-63
2021/07/15 17:54:06;;;;;;;5.93;2.22;;;33.80;58.30;;;;;;12022151;28;20071;-63
2021/07/15 17:59:53;;;;;;;5.65;2.30;;;30.40;64.70;;;;;;11989427;28;20048;-63
2021/07/15 18:05:40;;;;;;;3.97;2.42;;;30.10;66.50;;;;;;12010707;28;20447;-63
2021/07/15 18:11:29;;;;;;;2.30;2.10;;;31.80;62.10;;;;;;11984881;28;20516;-63
2021/07/15 18:17:18;;;;;;;9.38;2.38;;;32.40;60.60;;;;;;11982452;28;20045;-63
2021/07/15 18:23:05;;;;;;;6.90;2.88;;;30.70;63.40;;;;;;11985593;28;20056;-63
2021/07/15 18:28:53;;;;;;;7.57;2.60;;;28.90;68.30;;;;;;12019999;28;20060;-63
2021/07/15 18:34:40;;;;;;;6.65;2.83;;;27.50;73.30;;;;;;12020338;28;20041;-63
2021/07/15 18:40:27;;;;;;;5.68;2.60;;;27.10;75.00;;;;;;12019254;28;20037;-63
2021/07/15 18:46:15;;;;;;;5.25;2.72;;;26.30;78.20;;;;;;12019092;28;20053;-63
2021/07/15 18:52:03;;;;;;;4.47;3.08;;;25.70;82.00;;;;;;12019158;28;20049;-62
2021/07/15 18:57:51;;;;;;;4.80;2.78;;;25.60;83.40;;;;;;12020217;28;20053;-63
2021/07/15 19:03:39;;;;;;;6.47;3.00;;;25.40;84.80;;;;;;12020007;28;20131;-63
2021/07/15 19:09:26;;;;;;;3.38;2.75;;;25.00;86.90;;;;;;11986135;28;20049;-61
2021/07/15 19:21:56;;;;;;;6.00;2.83;;;24.60;89.40;;;;;;12017609;28;20048;-62
2021/07/15 19:27:44;;;;;;;3.17;2.78;;;24.20;90.60;;;;;;12018311;28;20516;-62
2021/07/15 19:33:33;;;;;;;5.18;2.53;;;24.20;91.20;;;;;;12019635;28;20057;-62
2021/07/15 19:39:21;;;;;;;5.88;2.50;;;24.00;91.60;;;;;;12020245;28;20079;-62
2021/07/15 19:45:10;;;;;;;4.45;2.35;;;24.00;92.10;;;;;;12018164;28;20059;-62
2021/07/15 19:50:58;;;;;;;5.35;2.63;;;24.20;92.10;;;;;;12017772;28;20605;-62
2021/07/15 19:56:47;;;;;;;4.88;2.80;;;24.00;92.60;;;;;;11993486;28;20056;-61
2021/07/15 20:02:34;;;;;;;3.22;2.72;;;23.90;93.10;;;;;;11987529;28;20045;-61
2021/07/15 20:08:21;;;;;;;5.22;2.90;;;23.80;94.10;;;;;;11984023;28;20056;-61
2021/07/15 20:14:09;;;;;;;5.70;2.70;;;23.70;94.50;;;;;;11992281;28;20056;-61
2021/07/15 20:19:56;;;;;;;8.77;3.30;;;23.50;95.50;;;;;;11990407;28;20061;-61
2021/07/15 20:25:44;;;;;;;8.25;3.40;;;23.50;96.60;;;;;;11984025;28;20061;-61
2021/07/15 20:31:32;;;;;;;5.22;3.13;;;23.50;96.60;;;;;;11967135;28;20053;-61
2021/07/15 20:37:19;;;;;;;4.82;2.63;;;23.50;97.00;;;;;;11936758;28;20057;-60
2021/07/15 20:43:06;;;;;;;5.75;2.92;;;23.60;97.00;;;;;;11947514;28;20050;-61
2021/07/15 20:48:55;;;;;;;4.53;2.83;;;23.80;97.30;;;;;;11943929;28;20041;-61
2021/07/15 20:54:42;;;;;;;7.03;3.20;;;23.70;97.60;;;;;;12000211;28;20048;-60
2021/07/15 21:00:32;;;;;;;10.30;3.28;;;23.60;98.00;;;;;;12008996;28;20049;-60
2021/07/15 21:06:21;;;;;;;6.15;2.80;;;23.40;98.60;;;;;;11964933;28;20049;-63
2021/07/15 21:12:10;;;;;;;7.13;2.70;;;23.40;98.90;;;;;;11962881;28;20052;-60
2021/07/15 21:17:57;;;;;;;4.43;2.40;;;23.40;98.50;;;;;;11947957;28;20115;-61
2021/07/15 21:23:45;;;;;;;3.42;2.47;;;23.40;98.80;;;;;;11864902;28;20518;-61
2021/07/15 21:29:32;;;;;;;13.93;2.58;;;23.20;98.30;;;;;;11852987;28;20049;-61
2021/07/15 21:35:19;;;;;;;7.82;2.28;;;23.00;98.20;;;;;;11872407;28;20118;-62
2021/07/15 21:41:07;;;;;;;3.78;2.10;;;22.70;98.90;;;;;;11846608;28;20052;-62
2021/07/15 21:46:54;;;;;;;9.68;2.45;;;22.50;99.80;;;;;;11925581;28;20045;-63
2021/07/15 21:52:41;;;;;;;8.77;1.98;;;22.80;99.40;;;;;;11939652;28;20061;-61
2021/07/15 21:58:29;;;;;;;7.45;2.70;;;22.90;99.00;;;;;;11970236;28;20179;-60
2021/07/15 22:04:16;;;;;;;5.55;2.30;;;22.90;99.00;;;;;;11987634;28;20045;-60
2021/07/15 22:10:04;;;;;;;14.30;2.63;;;23.00;98.30;;;;;;11963478;28;20520;-60
2021/07/15 22:15:52;;;;;;;5.10;2.60;;;22.80;98.30;;;;;;11990530;28;20417;-59
2021/07/15 22:21:41;;;;;;;4.22;2.50;;;23.00;98.80;;;;;;12012911;28;20048;-59
2021/07/15 22:27:28;;;;;;;5.85;3.15;;;23.10;99.20;;;;;;12013469;28;20432;-60
2021/07/15 22:33:16;;;;;;;9.45;3.10;;;23.10;99.80;;;;;;12021725;28;20045;-60
2021/07/15 22:39:05;;;;;;;8.52;3.28;;;23.00;99.20;;;;;;12021836;28;20049;-60
2021/07/15 22:44:53;;;;;;;6.03;2.92;;;22.50;98.70;;;;;;12021044;28;20421;-60
2021/07/15 22:50:41;;;;;;;6.20;3.10;;;22.30;98.80;;;;;;12020567;28;20186;-60
2021/07/15 22:56:28;;;;;;;8.63;3.10;;;22.50;98.80;;;;;;12020929;28;20040;-59
2021/07/15 23:02:15;;;;;;;12.55;3.80;;;22.40;98.80;;;;;;12020044;28;20059;-60
2021/07/15 23:08:04;;;;;;;8.80;3.13;;;22.20;98.40;;;;;;11991879;28;20068;-59
2021/07/15 23:13:51;;;;;;;6.28;3.30;;;22.00;99.40;;;;;;11968117;28;20056;-60
2021/07/15 23:19:38;;;;;;;9.38;3.50;;;21.90;99.60;;;;;;11979588;28;20063;-59
2021/07/15 23:25:27;;;;;;;12.65;4.90;;;22.10;99.50;;;;;;11958203;28;20053;-59
2021/07/15 23:31:13;;;;;;;8.13;4.13;;;22.10;99.40;;;;;;11978101;28;20053;-58
2021/07/15 23:37:00;;;;;;;11.60;4.82;;;22.00;99.60;;;;;;11980576;28;20061;-59
2021/07/15 23:42:49;;;;;;;9.88;5.60;;;21.80;99.40;;;;;;11974969;28;20040;-59
